createdAt,value
2017-10-05T00:02:07.796Z,12.00
2017-10-05T00:04:37.402Z,12.00
2017-10-05T00:07:06.568Z,11.90
2017-10-05T00:09:34.942Z,11.90
2017-10-05T00:12:03.377Z,11.90
2017-10-05T00:14:31.751Z,11.90
2017-10-05T00:17:00.113Z,11.90
2017-10-05T00:19:29.290Z,11.90
2017-10-05T00:21:57.643Z,11.80
2017-10-05T00:24:26.012Z,11.80
2017-10-05T00:26:54.399Z,11.80
2017-10-05T00:29:22.765Z,11.80
2017-10-05T00:31:51.270Z,11.80
2017-10-05T00:34:19.805Z,11.80
2017-10-05T00:36:48.175Z,11.80
2017-10-05T00:39:17.304Z,11.70
2017-10-05T00:41:45.994Z,11.70
2017-10-05T00:44:14.379Z,11.70
2017-10-05T00:46:42.737Z,11.70
2017-10-05T00:49:11.163Z,11.60
2017-10-05T00:51:39.543Z,11.60
2017-10-05T00:54:07.938Z,11.60
2017-10-05T00:56:36.441Z,11.60
2017-10-05T00:59:04.877Z,11.60
2017-10-05T01:01:33.259Z,11.60
2017-10-05T01:04:01.903Z,11.60
2017-10-05T01:06:30.574Z,11.70
2017-10-05T01:08:58.961Z,11.60
2017-10-05T01:11:27.370Z,11.60
2017-10-05T01:13:56.491Z,11.60
2017-10-05T01:16:24.850Z,11.60
2017-10-05T01:18:53.390Z,11.60
2017-10-05T01:21:21.835Z,11.60
2017-10-05T01:23:50.212Z,11.60
2017-10-05T01:26:19.550Z,11.40
2017-10-05T01:28:47.934Z,11.40
2017-10-05T01:31:16.299Z,11.40
2017-10-05T01:33:44.710Z,11.30
2017-10-05T01:36:13.083Z,11.30
2017-10-05T01:38:41.450Z,11.30
2017-10-05T01:41:10.030Z,11.30
2017-10-05T01:43:38.372Z,11.20
2017-10-05T01:46:07.637Z,11.30
2017-10-05T01:48:36.226Z,11.30
2017-10-05T01:51:04.649Z,11.30
2017-10-05T01:53:33.804Z,11.30
2017-10-05T01:56:02.295Z,11.30
2017-10-05T01:58:30.690Z,11.30
2017-10-05T02:00:59.047Z,11.30
2017-10-05T02:03:27.454Z,11.30
2017-10-05T02:05:56.625Z,11.40
2017-10-05T02:08:25.260Z,11.40
2017-10-05T02:10:53.707Z,11.40
2017-10-05T02:13:22.065Z,11.40
2017-10-05T02:15:50.414Z,11.40
2017-10-05T02:18:19.429Z,11.40
2017-10-05T02:20:47.790Z,11.30
2017-10-05T02:23:16.160Z,11.40
2017-10-05T02:25:44.633Z,11.40
2017-10-05T02:28:12.997Z,11.30
2017-10-05T02:30:41.360Z,11.30
2017-10-05T02:33:10.533Z,11.40
2017-10-05T02:35:39.152Z,11.40
2017-10-05T02:38:08.284Z,11.40
2017-10-05T02:40:36.893Z,11.40
2017-10-05T02:43:05.249Z,11.40
2017-10-05T02:45:33.622Z,11.40
2017-10-05T02:48:02.045Z,11.40
2017-10-05T02:50:30.429Z,11.40
2017-10-05T02:52:58.783Z,11.40
2017-10-05T02:55:27.344Z,11.40
2017-10-05T02:57:55.715Z,11.50
2017-10-05T03:00:24.287Z,11.40
2017-10-05T03:02:52.744Z,11.40
2017-10-05T03:05:21.856Z,11.50
2017-10-05T03:07:50.203Z,11.50
2017-10-05T03:10:19.158Z,11.50
2017-10-05T03:12:47.515Z,11.50
2017-10-05T03:15:15.870Z,11.40
2017-10-05T03:17:44.269Z,11.50
2017-10-05T03:20:12.624Z,11.50
2017-10-05T03:22:41.748Z,11.50
2017-10-05T03:25:10.355Z,11.50
2017-10-05T03:27:38.712Z,11.40
2017-10-05T03:30:07.086Z,11.40
2017-10-05T03:32:35.481Z,11.50
2017-10-05T03:35:03.844Z,11.50
2017-10-05T03:37:32.242Z,11.50
2017-10-05T03:40:00.720Z,11.50
2017-10-05T03:42:29.132Z,11.50
2017-10-05T03:44:57.497Z,11.50
2017-10-05T03:47:26.080Z,11.50
2017-10-05T03:49:54.661Z,11.50
2017-10-05T03:52:23.048Z,11.50
2017-10-05T03:54:51.784Z,11.50
2017-10-05T03:57:20.157Z,11.50
2017-10-05T03:59:48.553Z,11.50
2017-10-05T04:02:17.170Z,11.60
2017-10-05T04:04:45.524Z,11.50
2017-10-05T04:07:13.880Z,11.60
2017-10-05T04:09:42.277Z,11.60
2017-10-05T04:12:10.762Z,11.60
2017-10-05T04:14:39.141Z,11.60
2017-10-05T04:17:07.839Z,11.60
2017-10-05T04:19:36.219Z,11.60
2017-10-05T04:22:04.573Z,11.60
2017-10-05T04:24:33.053Z,11.70
2017-10-05T04:27:01.432Z,11.70
2017-10-05T04:29:29.818Z,11.70
2017-10-05T04:31:58.205Z,11.70
2017-10-05T04:34:26.569Z,11.70
2017-10-05T04:36:54.926Z,11.70
2017-10-05T04:39:24.040Z,11.70
2017-10-05T04:41:52.426Z,11.80
2017-10-05T04:44:20.801Z,11.80
2017-10-05T04:46:49.229Z,11.80
2017-10-05T04:49:17.589Z,11.80
2017-10-05T04:51:45.950Z,11.80
2017-10-05T04:54:14.349Z,11.80
2017-10-05T04:56:42.834Z,11.80
2017-10-05T04:59:11.201Z,11.80
2017-10-05T05:01:39.686Z,11.80
2017-10-05T05:04:08.240Z,11.80
2017-10-05T05:06:36.624Z,11.80
2017-10-05T05:09:05.033Z,11.80
2017-10-05T05:11:33.379Z,11.90
2017-10-05T05:14:01.805Z,11.90
2017-10-05T05:16:30.409Z,11.90
2017-10-05T05:18:59.531Z,11.90
2017-10-05T05:21:27.929Z,11.90
2017-10-05T05:23:57.981Z,11.90
2017-10-05T05:26:26.346Z,11.90
2017-10-05T05:28:54.750Z,11.90
2017-10-05T05:31:23.929Z,12.00
2017-10-05T05:33:52.304Z,12.00
2017-10-05T05:36:20.676Z,12.00
2017-10-05T05:38:49.083Z,12.00
2017-10-05T05:41:18.236Z,12.00
2017-10-05T05:43:47.534Z,12.00
2017-10-05T05:46:16.268Z,12.00
2017-10-05T05:48:45.433Z,12.00
2017-10-05T05:51:13.817Z,12.00
2017-10-05T05:53:42.652Z,12.00
2017-10-05T05:56:11.056Z,12.00
2017-10-05T05:58:39.403Z,12.00
2017-10-05T06:01:08.679Z,12.00
2017-10-05T06:03:37.038Z,12.00
2017-10-05T06:06:05.461Z,12.10
2017-10-05T06:08:34.740Z,12.10
2017-10-05T06:11:03.143Z,12.10
2017-10-05T06:13:31.538Z,12.10
2017-10-05T06:16:00.509Z,12.20
2017-10-05T06:18:29.681Z,12.20
2017-10-05T06:20:58.097Z,12.10
2017-10-05T06:23:26.743Z,12.20
2017-10-05T06:25:55.115Z,12.20
2017-10-05T06:28:23.571Z,12.20
2017-10-05T06:30:52.189Z,12.20
2017-10-05T06:33:20.559Z,12.20
2017-10-05T06:35:48.906Z,12.20
2017-10-05T06:38:17.333Z,12.20
2017-10-05T06:40:46.502Z,12.20
2017-10-05T06:43:16.031Z,12.20
2017-10-05T06:45:45.362Z,12.20
2017-10-05T06:48:13.713Z,12.20
2017-10-05T06:50:42.079Z,12.20
2017-10-05T06:53:10.600Z,12.20
2017-10-05T06:55:39.022Z,12.20
2017-10-05T06:58:07.394Z,12.30
2017-10-05T07:00:35.790Z,12.30
2017-10-05T07:03:04.255Z,12.40
2017-10-05T07:05:32.611Z,12.40
2017-10-05T07:08:01.465Z,12.30
2017-10-05T07:10:30.659Z,12.30
2017-10-05T07:15:34.544Z,12.10
2017-10-05T07:18:03.916Z,11.80
2017-10-05T07:20:32.260Z,11.80
2017-10-05T07:23:00.703Z,11.70
2017-10-05T07:25:29.143Z,11.70
2017-10-05T07:27:57.499Z,11.60
2017-10-05T07:30:26.234Z,11.60
2017-10-05T07:32:54.633Z,11.50
2017-10-05T07:35:24.045Z,11.50
2017-10-05T07:37:52.676Z,11.50
2017-10-05T07:40:21.027Z,11.50
2017-10-05T07:42:49.436Z,11.60
2017-10-05T07:45:17.933Z,11.50
2017-10-05T07:47:46.341Z,11.60
2017-10-05T07:50:14.712Z,11.60
2017-10-05T07:52:43.336Z,11.60
2017-10-05T07:55:11.856Z,11.70
2017-10-05T07:57:40.208Z,11.70
2017-10-05T08:00:09.405Z,11.80
2017-10-05T08:02:37.788Z,11.80
2017-10-05T08:05:06.960Z,12.00
2017-10-05T08:07:35.673Z,11.90
2017-10-05T08:10:04.105Z,12.10
2017-10-05T08:12:33.242Z,12.10
2017-10-05T08:15:02.427Z,12.10
2017-10-05T08:17:30.796Z,12.10
2017-10-05T08:19:59.641Z,12.00
2017-10-05T08:22:28.035Z,12.00
2017-10-05T08:24:56.400Z,12.00
2017-10-05T08:27:24.797Z,12.00
2017-10-05T08:29:53.716Z,12.00
2017-10-05T08:32:23.240Z,12.10
2017-10-05T08:34:52.381Z,12.10
2017-10-05T08:37:20.750Z,12.10
2017-10-05T08:39:49.077Z,12.10
2017-10-05T08:42:17.503Z,12.20
2017-10-05T08:44:46.016Z,12.30
2017-10-05T08:47:14.426Z,12.30
2017-10-05T08:49:43.539Z,12.40
2017-10-05T08:52:13.245Z,12.40
2017-10-05T08:54:42.410Z,12.90
2017-10-05T08:57:10.807Z,12.90
2017-10-05T08:59:40.270Z,12.90
2017-10-05T09:02:08.640Z,12.80
2017-10-05T09:04:37.011Z,12.90
2017-10-05T09:07:05.525Z,12.90
2017-10-05T09:09:34.056Z,12.90
2017-10-05T09:12:02.401Z,13.00
2017-10-05T09:14:30.804Z,13.20
2017-10-05T09:16:59.939Z,13.00
2017-10-05T09:19:28.435Z,13.00
2017-10-05T09:21:57.559Z,12.90
2017-10-05T09:24:26.741Z,12.90
2017-10-05T09:26:55.154Z,12.90
2017-10-05T09:29:23.585Z,12.70
2017-10-05T09:31:51.955Z,12.60
2017-10-05T09:34:20.521Z,12.50
2017-10-05T09:36:48.918Z,12.40
2017-10-05T09:39:18.300Z,12.40
2017-10-05T09:41:46.668Z,12.30
2017-10-05T09:44:15.445Z,12.30
2017-10-05T09:46:44.631Z,12.60
2017-10-05T09:49:13.788Z,12.60
2017-10-05T09:51:42.578Z,12.60
2017-10-05T09:54:11.006Z,12.60
2017-10-05T09:56:39.433Z,12.60
2017-10-05T09:59:08.135Z,12.60
2017-10-05T10:01:36.569Z,12.60
2017-10-05T10:04:04.926Z,12.60
2017-10-05T10:06:34.391Z,12.50
2017-10-05T10:09:04.125Z,12.50
2017-10-05T10:11:33.327Z,12.50
2017-10-05T10:14:02.605Z,12.50
2017-10-05T10:16:31.766Z,12.50
2017-10-05T10:19:00.143Z,12.50
2017-10-05T10:21:28.650Z,12.50
2017-10-05T10:23:57.314Z,12.50
2017-10-05T10:26:25.672Z,12.50
2017-10-05T10:28:54.062Z,12.50
2017-10-05T10:31:22.410Z,12.50
2017-10-05T10:33:51.966Z,12.50
2017-10-05T10:36:20.974Z,12.50
2017-10-05T10:38:49.369Z,12.50
2017-10-05T10:41:17.775Z,12.50
2017-10-05T10:43:47.209Z,12.60
2017-10-05T10:46:15.794Z,12.50
2017-10-05T10:48:45.390Z,12.60
2017-10-05T10:51:13.820Z,12.60
2017-10-05T10:53:42.391Z,12.60
2017-10-05T10:56:11.549Z,12.60
2017-10-05T10:58:39.996Z,12.60
2017-10-05T11:01:09.150Z,12.70
2017-10-05T11:03:37.589Z,12.70
2017-10-05T11:06:06.012Z,12.70
2017-10-05T11:08:34.705Z,12.70
2017-10-05T11:11:03.310Z,12.70
2017-10-05T11:13:32.627Z,12.80
2017-10-05T11:16:01.747Z,12.90
2017-10-05T11:18:30.191Z,12.80
2017-10-05T11:20:58.671Z,12.90
2017-10-05T11:23:27.529Z,13.10
2017-10-05T11:25:56.143Z,13.20
2017-10-05T11:28:24.671Z,13.30
2017-10-05T11:30:53.123Z,13.30
2017-10-05T11:33:22.328Z,13.40
2017-10-05T11:35:51.065Z,13.30
2017-10-05T11:38:19.923Z,13.40
2017-10-05T11:40:48.498Z,13.40
2017-10-05T11:43:16.964Z,13.50
2017-10-05T11:45:46.431Z,13.90
2017-10-05T11:48:14.805Z,13.90
2017-10-05T11:50:43.434Z,14.00
2017-10-05T11:53:11.848Z,14.10
2017-10-05T11:55:40.249Z,14.10
2017-10-05T11:58:08.934Z,14.10
2017-10-05T12:00:37.337Z,14.20
2017-10-05T12:03:05.790Z,14.20
2017-10-05T12:05:34.282Z,14.20
2017-10-05T12:08:02.681Z,14.20
2017-10-05T12:10:31.824Z,14.30
2017-10-05T12:13:00.331Z,14.30
2017-10-05T12:15:28.775Z,14.30
2017-10-05T12:17:57.189Z,14.20
2017-10-05T12:20:25.803Z,14.00
2017-10-05T12:22:54.932Z,13.80
2017-10-05T12:25:23.998Z,13.80
2017-10-05T12:27:53.679Z,13.60
2017-10-05T12:30:22.827Z,13.60
2017-10-05T12:32:51.251Z,13.60
2017-10-05T12:35:20.019Z,13.60
2017-10-05T12:37:48.415Z,13.80
2017-10-05T12:40:17.794Z,13.90
2017-10-05T12:42:46.428Z,14.00
2017-10-05T12:45:14.884Z,14.30
2017-10-05T12:47:43.309Z,14.70
2017-10-05T12:50:11.916Z,14.80
2017-10-05T12:52:40.464Z,15.00
2017-10-05T12:55:09.630Z,14.70
2017-10-05T12:57:38.062Z,14.70
2017-10-05T13:00:06.427Z,14.60
2017-10-05T13:02:35.595Z,14.60
2017-10-05T13:05:04.103Z,14.60
2017-10-05T13:07:33.279Z,14.50
2017-10-05T13:10:02.432Z,14.50
2017-10-05T13:12:30.840Z,14.50
2017-10-05T13:14:59.964Z,14.50
2017-10-05T13:17:29.337Z,14.50
2017-10-05T13:19:57.852Z,14.50
2017-10-05T13:22:26.976Z,14.60
2017-10-05T13:24:55.380Z,14.60
2017-10-05T13:27:25.103Z,14.50
2017-10-05T13:29:54.400Z,14.40
2017-10-05T13:32:22.881Z,14.30
2017-10-05T13:34:51.608Z,14.30
2017-10-05T13:37:20.005Z,14.50
2017-10-05T13:39:48.509Z,14.80
2017-10-05T13:42:17.004Z,14.80
2017-10-05T13:44:45.370Z,15.10
2017-10-05T13:47:13.742Z,15.60
2017-10-05T13:49:42.694Z,16.00
2017-10-05T13:52:11.868Z,15.90
2017-10-05T13:54:40.254Z,15.90
2017-10-05T13:57:09.853Z,15.80
2017-10-05T13:59:38.232Z,15.80
2017-10-05T14:02:06.624Z,15.40
2017-10-05T14:04:37.142Z,15.00
2017-10-05T14:07:05.615Z,15.00
2017-10-05T14:09:34.037Z,14.90
2017-10-05T14:12:03.646Z,14.70
2017-10-05T14:14:32.096Z,14.70
2017-10-05T14:17:01.428Z,14.70
2017-10-05T14:19:29.899Z,14.70
2017-10-05T14:21:59.041Z,15.10
2017-10-05T14:24:27.529Z,15.10
2017-10-05T14:26:56.106Z,15.00
2017-10-05T14:29:24.467Z,15.10
2017-10-05T14:31:53.262Z,15.00
2017-10-05T14:34:21.694Z,14.90
2017-10-05T14:36:50.842Z,15.10
2017-10-05T14:39:19.251Z,15.20
2017-10-05T14:41:48.943Z,14.90
2017-10-05T14:44:18.004Z,14.80
2017-10-05T14:46:46.980Z,14.80
2017-10-05T14:49:16.351Z,14.90
2017-10-05T14:51:44.724Z,14.90
2017-10-05T14:54:13.206Z,14.70
2017-10-05T14:56:42.110Z,14.50
2017-10-05T14:59:10.511Z,14.50
2017-10-05T15:01:39.707Z,14.70
2017-10-05T15:04:08.463Z,14.70
2017-10-05T15:06:36.890Z,14.60
2017-10-05T15:09:05.352Z,14.60
2017-10-05T15:11:33.813Z,14.60
2017-10-05T15:14:02.225Z,14.90
2017-10-05T15:16:30.586Z,14.60
2017-10-05T15:19:00.707Z,15.00
2017-10-05T15:21:30.014Z,15.10
2017-10-05T15:23:59.962Z,14.70
2017-10-05T15:26:28.758Z,14.70
2017-10-05T15:28:57.129Z,14.30
2017-10-05T15:31:25.529Z,14.10
2017-10-05T15:33:54.732Z,13.90
2017-10-05T15:36:23.183Z,13.60
2017-10-05T15:38:51.558Z,13.50
2017-10-05T15:41:20.108Z,13.30
2017-10-05T15:43:49.306Z,13.00
2017-10-05T15:46:18.477Z,13.00
2017-10-05T15:48:47.163Z,13.00
2017-10-05T15:51:15.587Z,12.90
2017-10-05T15:53:44.023Z,12.80
2017-10-05T15:56:12.567Z,12.90
2017-10-05T15:58:41.758Z,12.70
2017-10-05T16:01:10.230Z,12.70
2017-10-05T16:03:38.874Z,12.70
2017-10-05T16:06:07.242Z,12.70
2017-10-05T16:08:35.634Z,12.70
2017-10-05T16:11:04.215Z,12.60
2017-10-05T16:13:32.581Z,12.50
2017-10-05T16:16:00.962Z,12.50
2017-10-05T16:18:29.542Z,12.40
2017-10-05T16:20:57.931Z,12.30
2017-10-05T16:23:26.335Z,12.30
2017-10-05T16:25:55.543Z,12.20
2017-10-05T16:28:24.663Z,12.10
2017-10-05T16:30:53.137Z,12.00
2017-10-05T16:33:21.730Z,12.00
2017-10-05T16:35:50.616Z,11.90
2017-10-05T16:38:19.056Z,11.90
2017-10-05T16:40:48.220Z,11.80
2017-10-05T16:43:16.617Z,11.80
2017-10-05T16:45:44.997Z,11.80
2017-10-05T16:48:13.636Z,11.80
2017-10-05T16:50:42.010Z,11.80
2017-10-05T16:53:10.529Z,11.80
2017-10-05T16:55:39.133Z,11.70
2017-10-05T16:58:07.556Z,11.60
2017-10-05T17:00:36.241Z,11.60
2017-10-05T17:03:04.796Z,11.60
2017-10-05T17:05:33.960Z,11.60
2017-10-05T17:08:02.382Z,11.60
2017-10-05T17:10:31.223Z,11.50
2017-10-05T17:12:59.595Z,11.50
2017-10-05T17:15:27.992Z,11.50
2017-10-05T17:17:56.467Z,11.50
2017-10-05T17:20:24.951Z,11.50
2017-10-05T17:22:54.145Z,11.40
2017-10-05T17:25:22.887Z,11.40
2017-10-05T17:27:51.241Z,11.40
2017-10-05T17:30:20.514Z,11.40
2017-10-05T17:32:48.949Z,11.40
2017-10-05T17:35:18.241Z,11.40
2017-10-05T17:37:46.872Z,11.40
2017-10-05T17:40:15.451Z,11.30
2017-10-05T17:42:43.825Z,11.30
2017-10-05T17:45:12.988Z,11.20
2017-10-05T17:47:41.509Z,11.20
2017-10-05T17:50:09.960Z,11.20
2017-10-05T17:52:38.326Z,11.20
2017-10-05T17:55:06.735Z,11.30
2017-10-05T17:57:35.130Z,11.20
2017-10-05T18:00:03.692Z,11.20
2017-10-05T18:02:32.415Z,11.20
2017-10-05T18:05:00.813Z,11.20
2017-10-05T18:07:29.966Z,11.10
2017-10-05T18:09:58.361Z,11.00
2017-10-05T18:12:26.713Z,10.90
2017-10-05T18:14:55.147Z,11.00
2017-10-05T18:17:24.381Z,11.00
2017-10-05T18:19:52.744Z,10.90
2017-10-05T18:22:21.167Z,11.00
2017-10-05T18:24:50.493Z,11.00
2017-10-05T18:27:19.659Z,10.90
2017-10-05T18:29:48.031Z,10.90
2017-10-05T18:32:16.670Z,10.90
2017-10-05T18:34:45.855Z,10.80
2017-10-05T18:37:15.019Z,10.70
2017-10-05T18:39:44.217Z,10.70
2017-10-05T18:42:12.585Z,10.80
2017-10-05T18:44:40.952Z,10.60
2017-10-05T18:47:09.366Z,10.60
2017-10-05T18:49:37.737Z,10.60
2017-10-05T18:52:06.171Z,10.60
2017-10-05T18:54:34.821Z,10.60
2017-10-05T18:57:03.676Z,10.60
2017-10-05T18:59:32.044Z,10.60
2017-10-05T19:02:00.444Z,10.50
2017-10-05T19:04:30.330Z,10.50
2017-10-05T19:06:58.697Z,10.40
2017-10-05T19:09:27.093Z,10.40
2017-10-05T19:11:55.473Z,10.40
2017-10-05T19:14:23.871Z,10.50
2017-10-05T19:16:52.331Z,10.50
2017-10-05T19:19:20.701Z,10.60
2017-10-05T19:21:49.059Z,10.50
2017-10-05T19:24:18.822Z,10.30
2017-10-05T19:26:47.506Z,10.30
2017-10-05T19:29:16.243Z,10.30
2017-10-05T19:31:44.782Z,10.30
2017-10-05T19:34:13.133Z,10.30
2017-10-05T19:36:41.498Z,10.20
2017-10-05T19:39:09.937Z,10.20
2017-10-05T19:41:38.489Z,10.30
2017-10-05T19:44:06.866Z,10.20
2017-10-05T19:46:35.348Z,10.20
2017-10-05T19:49:03.732Z,10.20
2017-10-05T19:51:32.100Z,10.30
2017-10-05T19:54:01.074Z,10.20
2017-10-05T19:56:29.422Z,10.20
2017-10-05T19:58:58.561Z,10.30
2017-10-05T20:01:26.949Z,10.30
2017-10-05T20:03:55.318Z,10.30
2017-10-05T20:06:23.735Z,10.30
2017-10-05T20:08:52.399Z,10.00
2017-10-05T20:11:20.812Z,10.10
2017-10-05T20:13:50.131Z,10.20
2017-10-05T20:19:37.566Z,9.90
2017-10-05T20:22:23.823Z,9.90
2017-10-05T20:24:54.730Z,9.90
2017-10-05T20:27:26.016Z,9.90
2017-10-05T20:30:11.130Z,9.80
2017-10-05T20:33:00.121Z,9.60
2017-10-05T20:35:28.472Z,9.60
2017-10-05T20:37:57.172Z,9.60
2017-10-05T20:40:25.570Z,9.50
2017-10-05T20:42:54.077Z,9.60
2017-10-05T20:45:22.441Z,9.50
2017-10-05T20:47:51.717Z,9.60
2017-10-05T20:50:20.115Z,9.60
2017-10-05T20:52:48.491Z,9.50
2017-10-05T20:55:17.169Z,9.40
2017-10-05T20:57:45.540Z,9.30
2017-10-05T21:00:13.921Z,9.40
2017-10-05T21:02:42.536Z,9.40
2017-10-05T21:05:10.914Z,9.50
2017-10-05T21:07:39.270Z,9.60
2017-10-05T21:10:07.860Z,9.60
2017-10-05T21:12:36.216Z,9.70
2017-10-05T21:15:04.573Z,9.80
2017-10-05T21:17:33.108Z,9.90
2017-10-05T21:20:01.457Z,9.90
2017-10-05T21:22:29.805Z,10.00
2017-10-05T21:24:59.567Z,10.10
2017-10-05T21:27:28.001Z,10.10
2017-10-05T21:29:57.128Z,10.10
2017-10-05T21:32:25.652Z,10.10
2017-10-05T21:34:54.001Z,10.10
2017-10-05T21:37:22.373Z,10.00
2017-10-05T21:39:50.784Z,9.90
2017-10-05T21:42:19.144Z,9.80
2017-10-05T21:44:48.000Z,9.80
2017-10-05T21:47:16.433Z,9.80
2017-10-05T21:49:44.797Z,9.80
2017-10-05T21:52:13.167Z,9.80
2017-10-05T21:54:41.564Z,9.80
2017-10-05T21:57:09.993Z,9.80
2017-10-05T21:59:38.436Z,9.70
2017-10-05T22:02:07.064Z,9.70
2017-10-05T22:04:35.761Z,9.60
2017-10-05T22:07:04.208Z,9.60
2017-10-05T22:09:32.990Z,9.50
2017-10-05T22:12:02.212Z,9.40
2017-10-05T22:14:30.673Z,9.40
2017-10-05T22:16:59.963Z,9.40
2017-10-05T22:19:29.160Z,9.30
2017-10-05T22:21:58.361Z,9.30
2017-10-05T22:24:27.647Z,9.30
2017-10-05T22:26:56.084Z,9.30
2017-10-05T22:29:24.821Z,9.30
2017-10-05T22:31:54.267Z,9.50
2017-10-05T22:34:22.721Z,9.50
2017-10-05T22:36:51.185Z,9.40
2017-10-05T22:39:19.765Z,9.40
2017-10-05T22:41:48.255Z,9.50
2017-10-05T22:44:17.465Z,9.60
2017-10-05T22:46:46.715Z,9.50
2017-10-05T22:49:15.184Z,9.50
2017-10-05T22:51:43.628Z,9.40
2017-10-05T22:54:12.288Z,9.50
2017-10-05T22:56:40.722Z,9.40
2017-10-05T22:59:09.160Z,9.40
2017-10-05T23:01:38.424Z,9.20
2017-10-05T23:04:06.871Z,9.20
2017-10-05T23:06:35.395Z,9.10
2017-10-05T23:09:03.942Z,9.00
2017-10-05T23:11:32.386Z,8.80
2017-10-05T23:14:00.902Z,8.80
2017-10-05T23:16:29.501Z,8.70
2017-10-05T23:18:57.990Z,8.70
2017-10-05T23:21:26.514Z,8.80
2017-10-05T23:23:55.773Z,8.70
2017-10-05T23:26:24.235Z,8.70
2017-10-05T23:28:52.681Z,8.60
2017-10-05T23:31:21.937Z,8.60
2017-10-05T23:33:50.373Z,8.70
2017-10-05T23:36:18.839Z,8.60
2017-10-05T23:38:47.466Z,8.60
2017-10-05T23:41:15.910Z,8.50
2017-10-05T23:43:44.392Z,8.60
2017-10-05T23:46:13.632Z,8.60
2017-10-05T23:48:42.622Z,8.60
2017-10-05T23:51:11.049Z,8.60
2017-10-05T23:53:40.603Z,8.30
2017-10-05T23:56:09.040Z,8.30
2017-10-05T23:58:37.488Z,8.30
